Time;durP1;ratioP1;P1;durP2;ratioP2;P2;SDS_P1;SDS_P2;PMS_P1;PMS_P2;Temp;Humidity;BMP_temperature;BMP_pressure;BME280_temperature;BME280_humidity;BME280_pressure;Samples;Min_cycle;Max_cycle;Signal;HPM_P1;HPM_P2
2023/08/21 00:02:17;;;;;;;7.30;4.80;;;;;;;19.40;82.25;100285.52;217484;1262;139334;-70
2023/08/21 00:07:21;;;;;;;4.70;4.30;;;;;;;19.33;82.38;100280.79;217322;1260;140743;-70
2023/08/21 00:12:25;;;;;;;5.10;4.60;;;;;;;19.31;82.56;100283.34;217230;1260;139773;-68
2023/08/21 00:17:28;;;;;;;6.30;4.50;;;;;;;19.28;82.53;100289.73;217485;1262;140051;-66
2023/08/21 00:22:32;;;;;;;12.20;5.70;;;;;;;19.26;82.80;100287.70;217304;1260;140750;-69
2023/08/21 00:27:36;;;;;;;6.10;4.30;;;;;;;19.28;83.06;100283.09;218235;1259;140456;-70
2023/08/21 00:32:39;;;;;;;7.50;4.30;;;;;;;19.29;83.35;100278.64;218435;1260;140226;-67
2023/08/21 00:37:43;;;;;;;5.50;5.00;;;;;;;19.25;83.19;100275.11;219514;1259;140375;-69
2023/08/21 00:42:46;;;;;;;4.70;4.30;;;;;;;19.20;83.31;100283.69;218366;1260;139529;-67
2023/08/21 00:47:50;;;;;;;5.00;4.00;;;;;;;19.20;83.40;100287.10;218113;1259;139562;-66
2023/08/21 00:52:54;;;;;;;4.50;4.20;;;;;;;19.15;83.25;100281.92;218237;1258;140829;-66
2023/08/21 00:57:58;;;;;;;7.90;5.70;;;;;;;19.08;83.25;100273.69;219600;1260;139313;-67
2023/08/21 01:03:02;;;;;;;5.60;5.00;;;;;;;18.99;83.72;100274.37;220203;1259;140230;-67
2023/08/21 01:08:35;;;;;;;6.00;5.50;;;;;;;19.04;83.95;100276.13;218305;1257;140782;-68
2023/08/21 01:13:45;;;;;;;10.00;4.30;;;;;;;19.08;84.08;100274.77;220119;1260;139658;-71
2023/08/21 01:19:43;;;;;;;17.30;5.20;;;;;;;19.05;83.71;100271.76;217969;1259;139894;-66
2023/08/21 01:25:00;;;;;;;5.40;4.90;;;;;;;18.99;83.81;100275.17;218951;1259;139832;-70
2023/08/21 01:30:38;;;;;;;7.30;5.10;;;;;;;18.96;83.85;100266.98;217898;1259;141606;-68
2023/08/21 01:35:52;;;;;;;5.50;5.10;;;;;;;18.88;84.11;100264.93;217817;1266;139627;-68
2023/08/21 01:41:10;;;;;;;5.00;4.60;;;;;;;18.86;84.18;100270.50;216906;1266;139442;-67
2023/08/21 01:46:31;;;;;;;6.00;5.40;;;;;;;18.86;84.29;100272.44;217664;1267;140421;-69
2023/08/21 01:51:43;;;;;;;5.00;4.60;;;;;;;18.87;84.54;100269.79;216940;1263;140014;-68
2023/08/21 01:56:59;;;;;;;5.70;4.60;;;;;;;18.85;84.53;100267.96;216531;1267;140812;-70
2023/08/21 02:02:13;;;;;;;7.10;5.00;;;;;;;18.73;84.31;100260.86;216428;1264;140696;-68
2023/08/21 02:07:16;;;;;;;6.40;5.40;;;;;;;18.64;84.52;100270.35;217341;1267;139745;-73
2023/08/21 02:12:19;;;;;;;10.10;5.80;;;;;;;18.62;84.86;100280.09;216683;1267;139321;-73
2023/08/21 02:17:22;;;;;;;6.40;5.80;;;;;;;18.60;84.85;100275.55;217647;1264;141100;-75
2023/08/21 02:22:28;;;;;;;8.40;5.40;;;;;;;18.54;84.89;100272.14;217032;1266;140412;-73
2023/08/21 02:27:32;;;;;;;6.40;4.70;;;;;;;18.46;84.99;100271.06;216940;1264;153426;-70
2023/08/21 02:32:35;;;;;;;7.70;5.90;;;;;;;18.45;85.38;100265.55;217490;1266;140431;-70
2023/08/21 02:37:39;;;;;;;17.80;6.60;;;;;;;18.47;85.66;100256.33;217670;1266;141896;-70
2023/08/21 02:42:42;;;;;;;10.00;6.00;;;;;;;18.50;85.74;100250.80;217936;1268;140871;-67
2023/08/21 02:47:49;;;;;;;8.90;6.30;;;;;;;18.46;85.33;100249.58;217115;1263;140403;-67
2023/08/21 02:53:12;;;;;;;6.70;5.40;;;;;;;18.44;85.42;100250.12;217544;1260;139700;-68
2023/08/21 02:58:25;;;;;;;6.60;5.80;;;;;;;18.41;85.44;100254.45;218146;1262;140820;-70
2023/08/21 03:03:45;;;;;;;7.70;6.90;;;;;;;18.42;85.64;100262.44;218841;1260;140554;-68
2023/08/21 03:09:02;;;;;;;14.90;7.20;;;;;;;18.43;85.71;100271.13;218894;1260;139374;-68
2023/08/21 03:14:21;;;;;;;7.30;5.50;;;;;;;18.43;85.86;100272.90;219953;1259;141035;-68
2023/08/21 03:19:36;;;;;;;6.00;5.50;;;;;;;18.44;85.97;100278.41;218124;1260;140979;-67
2023/08/21 03:24:49;;;;;;;6.30;5.70;;;;;;;18.44;85.94;100291.58;217759;1262;141302;-70
2023/08/21 03:30:01;;;;;;;9.90;6.80;;;;;;;18.43;86.04;100295.15;218858;1260;139806;-68
2023/08/21 03:35:18;;;;;;;11.90;7.30;;;;;;;18.41;86.19;100307.13;217981;1262;141714;-69
2023/08/21 03:40:37;;;;;;;8.60;7.90;;;;;;;18.44;86.52;100313.17;218052;1261;139569;-68
2023/08/21 03:45:59;;;;;;;13.20;10.10;;;;;;;18.49;87.02;100300.55;217587;1262;140980;-69
2023/08/21 03:51:17;;;;;;;11.40;10.30;;;;;;;18.58;87.59;100295.15;217427;1260;140466;-69
2023/08/21 03:56:31;;;;;;;10.00;8.60;;;;;;;18.67;88.04;100288.05;218212;1260;139728;-70
2023/08/21 04:01:59;;;;;;;12.50;11.40;;;;;;;18.73;88.19;100284.68;217460;1257;209626;-69
2023/08/21 04:07:11;;;;;;;15.00;12.10;;;;;;;18.83;88.59;100286.55;217851;1259;140208;-70
2023/08/21 04:12:13;;;;;;;13.20;11.90;;;;;;;18.95;89.10;100287.48;217568;1262;140110;-70
2023/08/21 04:17:21;;;;;;;15.70;14.20;;;;;;;19.08;89.37;100288.88;218099;1260;141280;-70
2023/08/21 04:22:25;;;;;;;15.30;13.70;;;;;;;19.23;89.89;100302.32;217752;1261;140196;-73
2023/08/21 04:27:28;;;;;;;19.30;16.80;;;;;;;19.37;90.22;100313.00;217733;1261;140914;-69
2023/08/21 04:32:32;;;;;;;21.20;18.40;;;;;;;19.50;90.62;100304.61;217581;1259;140143;-70
2023/08/21 04:37:38;;;;;;;25.20;19.50;;;;;;;19.62;90.77;100306.77;217706;1262;140728;-72
2023/08/21 04:42:43;;;;;;;22.20;19.90;;;;;;;19.72;90.88;100309.95;217650;1260;141161;-70
2023/08/21 04:47:47;;;;;;;31.00;19.60;;;;;;;19.80;91.08;100324.77;217801;1261;140915;-68
2023/08/21 04:52:51;;;;;;;25.10;21.90;;;;;;;19.87;91.05;100361.30;218824;1260;140171;-69
2023/08/21 04:58:00;;;;;;;24.00;21.00;;;;;;;19.91;90.99;100424.20;219989;1261;139971;-70
2023/08/21 05:03:06;;;;;;;18.60;16.60;;;;;;;19.93;90.88;100446.64;219857;1259;140217;-71
2023/08/21 05:08:09;;;;;;;23.70;19.90;;;;;;;19.92;90.97;100456.13;219664;1260;140447;-71
2023/08/21 05:13:11;;;;;;;19.40;17.30;;;;;;;19.94;91.09;100441.61;219816;1260;139431;-71
2023/08/21 05:18:15;;;;;;;16.30;14.70;;;;;;;19.97;91.11;100448.09;217559;1262;139901;-70
2023/08/21 05:23:18;;;;;;;14.20;12.80;;;;;;;20.01;90.87;100470.86;219261;1260;153663;-71
2023/08/21 05:28:22;;;;;;;13.60;11.90;;;;;;;20.05;90.96;100469.64;217755;1260;141450;-70
2023/08/21 05:33:26;;;;;;;12.80;11.20;;;;;;;20.07;91.08;100442.25;217614;1262;141106;-70
2023/08/21 05:38:32;;;;;;;12.10;11.00;;;;;;;20.13;91.33;100440.54;218682;1257;140466;-67
2023/08/21 05:43:35;;;;;;;12.60;11.10;;;;;;;20.17;91.25;100441.52;217995;1257;140382;-70
2023/08/21 05:48:39;;;;;;;12.10;10.60;;;;;;;20.25;91.35;100433.57;217950;1262;140426;-68
2023/08/21 05:53:44;;;;;;;10.90;9.90;;;;;;;20.29;91.18;100442.20;217690;1262;139899;-68
2023/08/21 05:58:47;;;;;;;11.80;10.50;;;;;;;20.30;91.11;100441.87;218218;1257;142298;-68
2023/08/21 06:03:51;;;;;;;10.90;9.90;;;;;;;20.36;91.21;100453.21;218012;1262;141269;-70
2023/08/21 06:08:54;;;;;;;9.60;8.70;;;;;;;20.47;91.45;100436.47;217761;1261;139624;-69
2023/08/21 06:13:57;;;;;;;12.30;8.70;;;;;;;20.60;91.25;100442.37;218034;1260;139892;-67
2023/08/21 06:19:01;;;;;;;9.90;8.90;;;;;;;20.70;91.05;100449.49;218942;1261;139837;-68
2023/08/21 06:24:05;;;;;;;8.80;7.90;;;;;;;20.83;91.01;100449.85;217849;1257;139731;-67
2023/08/21 06:29:08;;;;;;;8.90;8.00;;;;;;;20.97;90.78;100442.04;217880;1258;139349;-71
2023/08/21 06:34:12;;;;;;;8.10;7.50;;;;;;;21.11;90.62;100436.52;218567;1257;140679;-69
2023/08/21 06:39:16;;;;;;;9.20;7.30;;;;;;;21.32;90.55;100442.29;217888;1257;140707;-73
2023/08/21 06:44:20;;;;;;;8.00;6.80;;;;;;;21.61;90.43;100446.59;217648;1257;139710;-71
2023/08/21 06:49:24;;;;;;;6.70;6.20;;;;;;;22.14;89.80;100447.10;218045;1257;139028;-69
2023/08/21 06:54:28;;;;;;;6.20;5.70;;;;;;;23.28;89.06;100441.66;218135;1258;139605;-70
2023/08/21 06:59:35;;;;;;;5.20;4.80;;;;;;;24.09;86.64;100442.58;219427;1262;139381;-69
2023/08/21 07:04:39;;;;;;;7.20;6.00;;;;;;;24.76;84.84;100437.79;218978;1261;139277;-72
2023/08/21 07:09:42;;;;;;;7.40;6.00;;;;;;;26.01;82.64;100433.35;218693;1256;139883;-72
2023/08/21 07:14:47;;;;;;;5.20;4.80;;;;;;;26.92;80.29;100427.09;219148;1261;139318;-68
2023/08/21 07:19:52;;;;;;;4.80;4.40;;;;;;;27.24;78.32;100430.20;219189;1260;141527;-68
2023/08/21 07:25:04;;;;;;;;;;;;;;;27.23;76.52;100434.40;217898;1262;139342;-69
2023/08/21 07:30:10;;;;;;;4.00;3.70;;;;;;;27.51;75.67;100437.58;218414;1263;125646;-69
2023/08/21 07:35:16;;;;;;;5.00;3.90;;;;;;;27.90;74.84;100438.34;218820;1261;138688;-72
2023/08/21 07:40:20;;;;;;;5.00;3.70;;;;;;;28.22;72.77;100434.98;218423;1261;140859;-69
2023/08/21 07:45:23;;;;;;;3.50;3.20;;;;;;;28.27;71.47;100433.46;217331;1261;516541;-68
2023/08/21 07:50:28;;;;;;;4.10;3.70;;;;;;;28.32;70.01;100433.48;218048;1260;139290;-67
2023/08/21 07:55:31;;;;;;;5.20;3.60;;;;;;;28.29;68.86;100430.33;217729;1262;141762;-69
2023/08/21 08:00:35;;;;;;;5.20;3.40;;;;;;;28.25;67.73;100429.61;217917;1262;139623;-67
2023/08/21 08:05:38;;;;;;;3.90;3.40;;;;;;;28.21;66.92;100430.66;217839;1263;138866;-68
2023/08/21 08:10:42;;;;;;;2.60;2.40;;;;;;;28.18;66.15;100442.17;217794;1257;139434;-67
2023/08/21 08:15:44;;;;;;;3.10;2.70;;;;;;;28.18;64.99;100461.36;217623;1262;139928;-66
2023/08/21 08:20:47;;;;;;;4.30;2.90;;;;;;;28.03;64.94;100464.89;217694;1258;139805;-67
2023/08/21 08:25:51;;;;;;;3.40;3.10;;;;;;;28.00;63.79;100460.29;217940;1260;140353;-67
2023/08/21 08:30:54;;;;;;;3.50;3.30;;;;;;;28.04;63.93;100456.69;217818;1260;139803;-68
2023/08/21 08:35:57;;;;;;;3.60;3.10;;;;;;;28.21;62.59;100451.56;218000;1257;139325;-67
2023/08/21 08:41:05;;;;;;;4.00;3.60;;;;;;;28.24;61.91;100448.80;218311;1261;139227;-68
2023/08/21 08:46:09;;;;;;;5.40;3.50;;;;;;;28.29;62.01;100442.55;218923;1261;140344;-69
2023/08/21 08:51:13;;;;;;;3.70;3.20;;;;;;;28.40;60.72;100440.21;218604;1257;139512;-70
2023/08/21 08:56:17;;;;;;;3.80;3.40;;;;;;;28.50;59.97;100436.17;219089;1258;140111;-70
2023/08/21 09:01:19;;;;;;;3.20;2.90;;;;;;;28.58;59.60;100438.56;218760;1258;140496;-69
2023/08/21 09:06:22;;;;;;;4.00;3.60;;;;;;;28.66;58.60;100440.59;217815;1260;139036;-68
2023/08/21 09:11:26;;;;;;;3.00;2.80;;;;;;;28.72;57.68;100441.65;218423;1260;142217;-72
2023/08/21 09:16:30;;;;;;;2.60;2.40;;;;;;;28.74;56.33;100438.41;218170;1257;140484;-70
2023/08/21 09:21:33;;;;;;;2.60;2.40;;;;;;;28.81;55.11;100435.96;218392;1257;140470;-73
2023/08/21 09:26:37;;;;;;;4.30;2.90;;;;;;;28.82;54.65;100436.69;218025;1257;141802;-75
2023/08/21 09:31:41;;;;;;;2.70;2.50;;;;;;;28.89;53.97;100439.06;218137;1258;139360;-74
2023/08/21 09:36:55;;;;;;;2.70;2.50;;;;;;;28.97;53.13;100429.59;218056;1257;139997;-71
2023/08/21 09:41:59;;;;;;;5.00;3.20;;;;;;;29.04;52.70;100432.55;218066;1258;138672;-71
2023/08/21 09:47:03;;;;;;;3.20;2.70;;;;;;;29.13;52.35;100427.45;218357;1254;139624;-73
2023/08/21 09:52:10;;;;;;;3.00;2.80;;;;;;;29.33;52.76;100421.60;218538;1257;139970;-74
2023/08/21 09:57:15;;;;;;;3.80;3.10;;;;;;;29.43;52.01;100423.65;218713;1254;141090;-71
2023/08/21 10:02:19;;;;;;;6.20;2.90;;;;;;;29.51;51.73;100424.46;218734;1254;138506;-70
2023/08/21 10:07:27;;;;;;;2.50;2.40;;;;;;;29.59;51.35;100428.23;218197;1254;139191;-72
2023/08/21 10:12:31;;;;;;;2.90;2.10;;;;;;;29.70;50.58;100426.05;218119;1259;140068;-71
2023/08/21 10:17:37;;;;;;;3.40;2.40;;;;;;;29.69;49.94;100422.34;218042;1259;139471;-75
2023/08/21 10:22:46;;;;;;;3.70;2.50;;;;;;;29.72;49.47;100421.98;218163;1254;138925;-70
2023/08/21 10:27:52;;;;;;;2.40;2.20;;;;;;;29.68;48.77;100426.23;218140;1254;139266;-69
2023/08/21 10:32:58;;;;;;;2.60;2.40;;;;;;;29.70;48.72;100427.89;218110;1257;138985;-72
2023/08/21 10:38:10;;;;;;;2.60;2.40;;;;;;;29.81;48.24;100421.55;218499;1254;139070;-75
2023/08/21 10:43:46;;;;;;;3.30;2.10;;;;;;;29.87;47.74;100420.05;219524;1254;140190;-76
2023/08/21 10:48:51;;;;;;;3.00;1.80;;;;;;;29.96;47.32;100414.98;218284;1254;139157;-74
2023/08/21 10:53:54;;;;;;;2.70;2.50;;;;;;;29.94;47.09;100413.37;219806;1254;141180;-75
2023/08/21 10:58:59;;;;;;;4.00;2.60;;;;;;;29.95;46.79;100411.58;220765;1254;139173;-78
2023/08/21 11:04:03;;;;;;;3.00;2.00;;;;;;;29.98;46.64;100410.59;219517;1254;161577;-71
2023/08/21 11:09:16;;;;;;;4.10;2.50;;;;;;;30.07;46.22;100409.22;219349;1254;139943;-71
2023/08/21 11:14:26;;;;;;;2.20;2.00;;;;;;;30.12;45.79;100402.75;218431;1254;138782;-76
2023/08/21 11:19:34;;;;;;;2.80;2.20;;;;;;;30.04;45.73;100399.21;218909;1255;139108;-72
2023/08/21 11:24:38;;;;;;;2.10;1.70;;;;;;;30.02;45.67;100396.27;219983;1256;140644;-73
2023/08/21 11:29:43;;;;;;;3.50;2.40;;;;;;;30.05;45.91;100388.55;219391;1254;140407;-69
2023/08/21 11:34:57;;;;;;;2.70;2.00;;;;;;;29.91;45.84;100393.09;218457;1254;139213;-76
2023/08/21 11:40:07;;;;;;;2.00;1.60;;;;;;;29.75;45.89;100392.16;219274;1254;139195;-72
2023/08/21 11:45:12;;;;;;;2.20;2.00;;;;;;;29.67;45.80;100389.02;218063;1254;138866;-67
2023/08/21 11:50:18;;;;;;;1.70;1.60;;;;;;;29.61;45.66;100387.65;218482;1254;140403;-67
2023/08/21 11:55:22;;;;;;;3.90;2.10;;;;;;;29.81;45.55;100385.09;218714;1254;139536;-67
2023/08/21 12:00:30;;;;;;;3.10;2.00;;;;;;;30.00;45.23;100379.46;218523;1254;139866;-67
2023/08/21 12:05:34;;;;;;;1.70;1.60;;;;;;;30.09;44.28;100379.11;218600;1254;140185;-68
2023/08/21 12:10:39;;;;;;;1.60;1.50;;;;;;;30.15;44.29;100377.85;218262;1254;139245;-68
2023/08/21 12:15:44;;;;;;;5.00;1.70;;;;;;;30.18;44.55;100376.22;218263;1254;139643;-69
2023/08/21 12:20:48;;;;;;;2.70;1.80;;;;;;;30.26;44.15;100379.50;218461;1257;139376;-67
2023/08/21 12:25:52;;;;;;;4.40;1.80;;;;;;;30.29;43.72;100372.89;218790;1253;139194;-67
2023/08/21 12:30:55;;;;;;;2.20;1.50;;;;;;;30.03;43.55;100373.28;218418;1254;139439;-67
2023/08/21 12:35:58;;;;;;;2.40;2.20;;;;;;;29.75;42.84;100368.98;219015;1253;140214;-67
2023/08/21 12:41:05;;;;;;;2.30;2.00;;;;;;;29.59;43.42;100363.04;219271;1253;141579;-67
2023/08/21 12:46:09;;;;;;;2.80;1.90;;;;;;;29.58;43.62;100359.54;220213;1253;139080;-68
2023/08/21 12:51:14;;;;;;;7.20;2.70;;;;;;;29.70;43.38;100356.98;220357;1253;139165;-68
2023/08/21 12:56:18;;;;;;;2.00;1.80;;;;;;;29.67;43.69;100348.17;219519;1253;141367;-67
2023/08/21 13:01:22;;;;;;;2.20;2.10;;;;;;;29.80;43.69;100345.02;219256;1254;138734;-68
2023/08/21 13:06:26;;;;;;;2.30;1.90;;;;;;;29.85;43.03;100344.85;220379;1253;139306;-67
2023/08/21 13:11:30;;;;;;;3.60;2.20;;;;;;;29.83;43.26;100342.92;218728;1257;139416;-68
2023/08/21 13:16:34;;;;;;;5.40;2.30;;;;;;;29.83;42.95;100340.80;218216;1253;139093;-67
2023/08/21 13:21:37;;;;;;;3.10;2.20;;;;;;;29.76;43.14;100343.52;220068;1253;139805;-68
2023/08/21 13:26:40;;;;;;;5.30;1.90;;;;;;;29.74;42.79;100340.31;218569;1257;139384;-67
2023/08/21 13:31:43;;;;;;;2.70;2.10;;;;;;;29.72;42.80;100335.92;218977;1253;139558;-67
2023/08/21 13:36:46;;;;;;;4.20;2.00;;;;;;;29.66;42.65;100336.14;218071;1254;139367;-67
2023/08/21 13:41:50;;;;;;;2.50;2.10;;;;;;;29.61;42.59;100337.97;218282;1257;139264;-69
2023/08/21 13:46:53;;;;;;;2.40;2.30;;;;;;;29.62;43.05;100336.91;220748;1253;139904;-69
2023/08/21 13:51:56;;;;;;;2.90;2.70;;;;;;;29.51;42.68;100335.63;218325;1258;140640;-68
2023/08/21 13:56:59;;;;;;;3.00;2.20;;;;;;;29.36;42.92;100335.48;217557;1259;140361;-66
2023/08/21 14:02:03;;;;;;;2.40;2.20;;;;;;;29.30;43.29;100334.66;218319;1257;139005;-68
2023/08/21 14:07:06;;;;;;;2.20;2.10;;;;;;;29.34;43.06;100331.23;218106;1256;138876;-66
2023/08/21 14:12:08;;;;;;;3.90;2.20;;;;;;;29.34;43.68;100331.31;218161;1259;139903;-67
2023/08/21 14:17:10;;;;;;;5.00;2.10;;;;;;;29.16;43.75;100328.80;218523;1256;138423;-66
2023/08/21 14:22:13;;;;;;;9.10;2.70;;;;;;;29.15;43.57;100329.17;217830;1258;140149;-66
2023/08/21 14:27:16;;;;;;;2.60;2.40;;;;;;;29.29;43.67;100329.04;218098;1256;139629;-67
2023/08/21 14:32:18;;;;;;;3.20;2.90;;;;;;;29.39;43.92;100321.11;217372;1258;140247;-66
2023/08/21 14:37:20;;;;;;;3.80;2.90;;;;;;;29.38;43.68;100320.38;219502;1258;138989;-65
2023/08/21 14:42:23;;;;;;;18.70;3.20;;;;;;;29.31;43.58;100309.48;220189;1256;140051;-67
2023/08/21 14:47:25;;;;;;;7.70;2.90;;;;;;;29.22;43.52;100306.48;217580;1259;140389;-67
2023/08/21 14:52:27;;;;;;;2.80;2.60;;;;;;;29.18;43.71;100305.73;217488;1257;139275;-67
2023/08/21 14:57:29;;;;;;;3.20;2.90;;;;;;;29.16;43.84;100296.94;217696;1256;139326;-67
2023/08/21 15:02:32;;;;;;;5.80;2.70;;;;;;;29.11;43.88;100296.64;218564;1257;139187;-67
2023/08/21 15:07:34;;;;;;;3.50;3.20;;;;;;;29.04;43.82;100300.76;217631;1257;139534;-67
2023/08/21 15:12:36;;;;;;;3.20;2.90;;;;;;;28.89;43.85;100300.02;218506;1259;139779;-67
2023/08/21 15:17:39;;;;;;;7.60;3.30;;;;;;;28.65;44.48;100293.36;217491;1257;140168;-66
2023/08/21 15:22:45;;;;;;;2.60;2.50;;;;;;;28.57;44.68;100287.75;217325;1261;139135;-67
2023/08/21 15:27:48;;;;;;;2.80;2.60;;;;;;;28.51;44.86;100282.70;217879;1259;138724;-66
2023/08/21 15:32:50;;;;;;;3.30;3.00;;;;;;;28.42;45.22;100286.08;217397;1256;139492;-67
2023/08/21 15:37:52;;;;;;;3.50;2.80;;;;;;;28.14;45.62;100290.20;217305;1257;139116;-67
2023/08/21 15:42:55;;;;;;;2.80;2.60;;;;;;;27.85;46.16;100293.95;218599;1257;138953;-67
2023/08/21 15:47:58;;;;;;;3.80;2.90;;;;;;;27.76;46.50;100291.04;217498;1259;139409;-66
2023/08/21 15:53:00;;;;;;;5.80;2.60;;;;;;;27.69;46.98;100285.23;219331;1259;140292;-66
2023/08/21 15:58:06;;;;;;;2.80;2.60;;;;;;;27.54;47.42;100284.48;218578;1256;139063;-67
2023/08/21 16:03:08;;;;;;;3.00;2.80;;;;;;;27.39;48.19;100285.87;218728;1259;140158;-66
2023/08/21 16:08:14;;;;;;;30.10;4.40;;;;;;;27.25;48.95;100284.00;219007;1260;139723;-66
2023/08/21 16:13:17;;;;;;;3.00;2.70;;;;;;;27.09;49.49;100273.77;217467;1257;140007;-65
2023/08/21 16:18:20;;;;;;;3.60;3.30;;;;;;;26.96;49.94;100266.76;218259;1260;138842;-66
2023/08/21 16:23:24;;;;;;;5.70;3.50;;;;;;;26.88;51.02;100274.55;218908;1256;139288;-66
2023/08/21 16:28:26;;;;;;;3.10;2.90;;;;;;;26.79;51.66;100274.38;218867;1258;140002;-66
2023/08/21 16:33:30;;;;;;;8.80;3.70;;;;;;;26.71;52.29;100281.94;217427;1256;138916;-66
2023/08/21 16:38:34;;;;;;;3.60;3.40;;;;;;;26.66;53.53;100281.63;217580;1256;139515;-65
2023/08/21 16:43:40;;;;;;;5.80;3.70;;;;;;;26.58;53.60;100276.73;218695;1256;139516;-65
2023/08/21 16:48:42;;;;;;;5.30;3.10;;;;;;;26.50;53.84;100280.39;219458;1260;139044;-66
2023/08/21 16:53:48;;;;;;;4.20;3.80;;;;;;;26.36;54.69;100282.69;217867;1260;140369;-67
2023/08/21 16:58:52;;;;;;;6.00;4.10;;;;;;;26.19;55.54;100286.23;218407;1256;140235;-68
2023/08/21 17:03:56;;;;;;;8.00;3.90;;;;;;;26.00;56.01;100288.52;218111;1256;139770;-66
2023/08/21 17:09:00;;;;;;;5.80;4.80;;;;;;;25.82;56.85;100282.48;217574;1256;138848;-66
2023/08/21 17:14:04;;;;;;;3.70;3.30;;;;;;;25.62;57.69;100277.11;217911;1260;138829;-66
2023/08/21 17:19:06;;;;;;;6.20;4.20;;;;;;;25.41;58.30;100268.35;217502;1259;139097;-64
2023/08/21 17:24:11;;;;;;;8.00;4.20;;;;;;;25.18;58.44;100262.29;218312;1257;140051;-65
2023/08/21 17:29:15;;;;;;;11.30;4.40;;;;;;;24.99;58.83;100276.34;217956;1258;139478;-66
2023/08/21 17:34:17;;;;;;;4.90;4.20;;;;;;;24.80;59.43;100283.36;217766;1256;140748;-66
2023/08/21 17:39:21;;;;;;;5.20;4.00;;;;;;;24.61;59.92;100284.05;218032;1257;139366;-64
2023/08/21 17:44:24;;;;;;;5.90;4.00;;;;;;;24.42;60.49;100281.99;217501;1257;139519;-65
2023/08/21 17:49:29;;;;;;;4.80;3.90;;;;;;;24.25;61.01;100280.09;217676;1256;139985;-67
2023/08/21 17:54:37;;;;;;;5.40;3.80;;;;;;;24.03;61.64;100276.52;217788;1257;139056;-66
2023/08/21 17:59:43;;;;;;;8.40;4.60;;;;;;;23.82;62.28;100272.58;218955;1261;141689;-66
2023/08/21 18:04:47;;;;;;;;;;;;;;;23.66;62.82;100271.42;217796;1262;140745;-66
2023/08/21 18:09:53;;;;;;;4.40;4.00;;;;;;;23.48;63.26;100278.05;218710;1259;126008;-67
2023/08/21 18:15:01;;;;;;;10.80;4.90;;;;;;;23.34;63.32;100280.89;218933;1257;141199;-66
2023/08/21 18:20:07;;;;;;;5.40;4.40;;;;;;;23.22;63.96;100282.92;218290;1260;140141;-66
2023/08/21 18:25:18;;;;;;;4.50;4.00;;;;;;;23.10;64.84;100284.05;218041;1260;140028;-66
2023/08/21 18:30:37;;;;;;;5.00;4.50;;;;;;;22.93;65.03;100286.52;220141;1260;141544;-65
2023/08/21 18:35:41;;;;;;;5.70;4.30;;;;;;;22.67;65.42;100291.56;217878;1258;140228;-65
2023/08/21 18:40:48;;;;;;;6.40;4.20;;;;;;;22.46;65.92;100296.59;220173;1260;140741;-64
2023/08/21 18:45:53;;;;;;;4.10;3.80;;;;;;;22.27;66.65;100299.17;218631;1260;139968;-65
2023/08/21 18:50:57;;;;;;;6.10;4.50;;;;;;;22.14;67.12;100300.80;218747;1260;140555;-65
2023/08/21 18:56:04;;;;;;;4.50;4.10;;;;;;;22.12;68.00;100305.88;218108;1258;152666;-66
2023/08/21 19:01:08;;;;;;;4.10;3.80;;;;;;;22.00;68.40;100306.66;217992;1261;139614;-64
2023/08/21 19:06:15;;;;;;;5.10;4.70;;;;;;;21.81;68.82;100303.98;218654;1260;140485;-66
2023/08/21 19:11:23;;;;;;;7.30;5.20;;;;;;;21.66;69.40;100303.00;217457;1260;139800;-67
2023/08/21 19:16:36;;;;;;;5.80;4.90;;;;;;;21.54;69.88;100305.20;218488;1258;140747;-67
2023/08/21 19:21:44;;;;;;;4.40;4.00;;;;;;;21.42;70.00;100308.34;217559;1258;139986;-67
2023/08/21 19:26:50;;;;;;;4.90;4.40;;;;;;;21.28;70.40;100304.75;217322;1260;139641;-66
2023/08/21 19:31:54;;;;;;;5.40;4.90;;;;;;;21.14;70.90;100304.17;217603;1262;138871;-67
2023/08/21 19:37:00;;;;;;;7.10;4.80;;;;;;;21.06;71.34;100301.42;217481;1262;140175;-66
2023/08/21 19:42:06;;;;;;;5.40;4.90;;;;;;;21.03;71.49;100302.50;217588;1260;140302;-68
2023/08/21 19:47:16;;;;;;;5.50;5.00;;;;;;;20.88;71.57;100303.26;216962;1260;1345745;-66
2023/08/21 19:52:23;;;;;;;5.50;5.10;;;;;;;20.73;71.91;100305.98;217890;1262;139976;-66
2023/08/21 19:57:29;;;;;;;6.40;5.80;;;;;;;20.60;72.16;100303.14;217847;1261;139559;-66
2023/08/21 20:02:33;;;;;;;6.80;6.20;;;;;;;20.57;72.47;100302.63;218076;1260;139901;-65
2023/08/21 20:07:43;;;;;;;6.80;6.10;;;;;;;20.54;72.76;100305.75;217357;1260;140004;-65
2023/08/21 20:12:47;;;;;;;5.60;5.10;;;;;;;20.43;72.73;100308.35;217602;1262;152943;-64
2023/08/21 20:17:50;;;;;;;5.20;4.80;;;;;;;20.31;72.86;100312.39;218169;1261;140227;-66
2023/08/21 20:22:53;;;;;;;6.10;5.00;;;;;;;20.14;73.11;100313.36;218233;1259;139856;-65
2023/08/21 20:27:58;;;;;;;7.20;5.40;;;;;;;20.02;73.65;100315.41;218643;1262;139913;-66
2023/08/21 20:33:03;;;;;;;5.50;5.10;;;;;;;19.94;73.97;100313.89;218412;1262;139860;-65
2023/08/21 20:38:10;;;;;;;5.90;5.50;;;;;;;19.91;74.42;100312.88;217445;1260;140488;-67
2023/08/21 20:43:15;;;;;;;7.70;6.50;;;;;;;19.86;74.45;100317.86;217390;1260;139825;-64
2023/08/21 20:48:19;;;;;;;5.50;5.10;;;;;;;19.71;74.48;100314.82;218982;1257;139670;-64
2023/08/21 20:53:25;;;;;;;7.00;5.90;;;;;;;19.59;74.80;100309.17;218745;1260;139396;-67
2023/08/21 20:58:28;;;;;;;7.00;6.40;;;;;;;19.53;74.91;100313.16;217501;1262;140178;-66
2023/08/21 21:03:31;;;;;;;6.60;6.00;;;;;;;19.37;75.11;100317.86;219203;1261;139949;-66
2023/08/21 21:08:35;;;;;;;6.70;5.70;;;;;;;19.20;75.24;100323.58;218853;1259;141104;-64
2023/08/21 21:13:38;;;;;;;6.50;6.00;;;;;;;19.10;75.68;100322.00;217282;1262;140625;-67
2023/08/21 21:18:42;;;;;;;7.60;6.90;;;;;;;19.05;75.99;100323.90;218280;1260;139574;-64
2023/08/21 21:23:46;;;;;;;7.30;6.60;;;;;;;19.04;76.19;100315.96;217710;1262;140571;-66
2023/08/21 21:28:50;;;;;;;6.70;6.20;;;;;;;19.00;76.22;100319.75;217371;1260;140046;-67
2023/08/21 21:33:54;;;;;;;9.00;5.70;;;;;;;18.94;76.38;100320.76;217637;1258;140701;-66
2023/08/21 21:38:59;;;;;;;5.70;5.20;;;;;;;18.84;76.44;100325.60;217432;1262;140154;-67
2023/08/21 21:44:04;;;;;;;7.10;6.20;;;;;;;18.73;76.35;100329.30;217287;1261;140378;-66
2023/08/21 21:49:09;;;;;;;6.90;6.20;;;;;;;18.58;76.44;100328.52;218024;1262;139720;-65
2023/08/21 21:54:12;;;;;;;7.00;6.20;;;;;;;18.45;76.53;100332.08;217330;1259;140498;-66
2023/08/21 21:59:15;;;;;;;13.20;6.90;;;;;;;18.36;77.18;100336.29;218464;1262;141205;-66
2023/08/21 22:04:19;;;;;;;6.60;6.00;;;;;;;18.35;77.31;100332.41;218192;1261;140437;-66
2023/08/21 22:09:25;;;;;;;11.40;6.40;;;;;;;18.30;77.50;100333.24;218452;1260;141011;-65
2023/08/21 22:14:30;;;;;;;8.20;6.50;;;;;;;18.26;77.62;100336.31;218655;1257;140280;-66
2023/08/21 22:19:34;;;;;;;10.50;6.60;;;;;;;18.21;77.64;100336.64;218934;1260;139817;-67
2023/08/21 22:24:37;;;;;;;5.90;5.50;;;;;;;18.18;77.91;100340.30;218282;1262;141298;-66
2023/08/21 22:29:45;;;;;;;8.00;6.50;;;;;;;18.13;77.98;100338.25;217653;1262;140676;-67
2023/08/21 22:34:48;;;;;;;6.90;6.20;;;;;;;18.01;78.04;100340.36;218350;1257;141447;-65
2023/08/21 22:39:51;;;;;;;7.10;6.00;;;;;;;17.95;78.43;100345.05;219114;1262;234182;-67
2023/08/21 22:44:53;;;;;;;12.20;5.70;;;;;;;17.95;78.75;100341.55;218278;1263;140270;-67
2023/08/21 22:49:58;;;;;;;6.70;6.10;;;;;;;17.93;78.67;100338.20;217194;1262;139816;-67
2023/08/21 22:55:01;;;;;;;6.80;6.20;;;;;;;17.87;78.64;100341.36;218278;1257;139607;-67
2023/08/21 23:00:08;;;;;;;7.10;5.70;;;;;;;17.80;78.79;100339.30;217755;1260;140596;-68
2023/08/21 23:05:10;;;;;;;5.90;4.80;;;;;;;17.76;78.91;100346.30;218372;1257;140243;-68